sensor_id;sensor_type;location;lat;lon;timestamp;noise_LAeq;noise_LA_min;noise_LA_max;noise_LA01;noise_LA95
69608;Laerm;57251;52.248;4.812;2024-02-04T00:00:06;57.71;36.12;68.98;;
69608;Laerm;57251;52.248;4.812;2024-02-04T00:00:16;51.65;36.16;64.47;;
69608;Laerm;57251;52.248;4.812;2024-02-04T00:00:28;57.84;36.93;69.14;;
69608;Laerm;57251;52.248;4.812;2024-02-04T00:00:38;57.85;36.94;70.05;;
69608;Laerm;57251;52.248;4.812;2024-02-04T00:00:49;71.29;38.65;80.89;;
69608;Laerm;57251;52.248;4.812;2024-02-04T00:00:59;70.41;37.89;85.54;;
69608;Laerm;57251;52.248;4.812;2024-02-04T00:01:10;65.83;38.74;75.18;;
69608;Laerm;57251;52.248;4.812;2024-02-04T00:01:20;65.40;42.38;75.43;;
69608;Laerm;57251;52.248;4.812;2024-02-04T00:01:30;51.30;36.63;65.26;;
69608;Laerm;57251;52.248;4.812;2024-02-04T00:01:41;42.84;36.55;55.43;;
69608;Laerm;57251;52.248;4.812;2024-02-04T00:01:52;50.49;36.65;61.85;;
69608;Laerm;57251;52.248;4.812;2024-02-04T00:02:02;65.38;37.91;78.89;;
69608;Laerm;57251;52.248;4.812;2024-02-04T00:02:13;65.61;42.06;79.63;;
69608;Laerm;57251;52.248;4.812;2024-02-04T00:02:24;62.55;43.22;74.55;;
69608;Laerm;57251;52.248;4.812;2024-02-04T00:02:35;70.51;39.30;81.75;;
69608;Laerm;57251;52.248;4.812;2024-02-04T00:02:45;63.97;43.12;80.74;;
69608;Laerm;57251;52.248;4.812;2024-02-04T00:02:56;64.68;36.76;77.54;;
69608;Laerm;57251;52.248;4.812;2024-02-04T00:03:06;43.27;36.33;52.66;;
69608;Laerm;57251;52.248;4.812;2024-02-04T00:03:16;51.79;36.50;67.88;;
69608;Laerm;57251;52.248;4.812;2024-02-04T00:03:27;60.31;37.84;71.75;;
69608;Laerm;57251;52.248;4.812;2024-02-04T00:03:37;63.74;37.71;79.00;;
69608;Laerm;57251;52.248;4.812;2024-02-04T00:03:47;69.34;40.49;81.71;;
69608;Laerm;57251;52.248;4.812;2024-02-04T00:03:58;65.80;37.03;79.12;;
69608;Laerm;57251;52.248;4.812;2024-02-04T00:04:08;61.97;38.53;77.40;;
69608;Laerm;57251;52.248;4.812;2024-02-04T00:04:18;54.28;37.18;72.41;;
69608;Laerm;57251;52.248;4.812;2024-02-04T00:04:29;49.54;36.80;61.69;;
69608;Laerm;57251;52.248;4.812;2024-02-04T00:04:42;58.04;36.82;69.65;;
69608;Laerm;57251;52.248;4.812;2024-02-04T00:04:52;69.25;47.88;83.13;;
69608;Laerm;57251;52.248;4.812;2024-02-04T00:05:03;63.83;38.49;74.94;;
69608;Laerm;57251;52.248;4.812;2024-02-04T00:05:13;64.67;39.37;78.44;;
69608;Laerm;57251;52.248;4.812;2024-02-04T00:05:23;59.36;37.28;68.56;;
69608;Laerm;57251;52.248;4.812;2024-02-04T00:05:34;56.58;38.99;68.40;;
69608;Laerm;57251;52.248;4.812;2024-02-04T00:05:44;43.32;38.73;51.16;;
69608;Laerm;57251;52.248;4.812;2024-02-04T00:05:54;52.05;38.42;67.92;;
69608;Laerm;57251;52.248;4.812;2024-02-04T00:06:05;56.91;38.69;70.77;;
69608;Laerm;57251;52.248;4.812;2024-02-04T00:06:16;52.69;39.35;62.75;;
69608;Laerm;57251;52.248;4.812;2024-02-04T00:06:26;49.76;39.16;64.06;;
69608;Laerm;57251;52.248;4.812;2024-02-04T00:06:37;48.88;37.92;63.57;;
69608;Laerm;57251;52.248;4.812;2024-02-04T00:06:47;44.50;36.64;54.48;;
69608;Laerm;57251;52.248;4.812;2024-02-04T00:06:58;44.11;36.54;56.57;;
69608;Laerm;57251;52.248;4.812;2024-02-04T00:07:08;43.96;36.59;56.30;;
69608;Laerm;57251;52.248;4.812;2024-02-04T00:07:18;44.03;36.17;61.09;;
69608;Laerm;57251;52.248;4.812;2024-02-04T00:07:28;63.23;36.19;77.04;;
69608;Laerm;57251;52.248;4.812;2024-02-04T00:07:39;58.77;36.37;68.21;;
69608;Laerm;57251;52.248;4.812;2024-02-04T00:07:49;54.66;37.86;69.86;;
69608;Laerm;57251;52.248;4.812;2024-02-04T00:07:59;42.80;36.64;53.68;;
69608;Laerm;57251;52.248;4.812;2024-02-04T00:08:10;55.64;37.39;67.83;;
69608;Laerm;57251;52.248;4.812;2024-02-04T00:08:20;42.43;38.54;50.87;;
69608;Laerm;57251;52.248;4.812;2024-02-04T00:08:30;44.95;38.48;54.07;;
69608;Laerm;57251;52.248;4.812;2024-02-04T00:08:40;50.17;38.54;62.29;;
69608;Laerm;57251;52.248;4.812;2024-02-04T00:08:51;52.45;38.71;61.39;;
69608;Laerm;57251;52.248;4.812;2024-02-04T00:09:01;47.81;39.10;57.60;;
69608;Laerm;57251;52.248;4.812;2024-02-04T00:09:13;43.49;38.26;55.94;;
69608;Laerm;57251;52.248;4.812;2024-02-04T00:09:24;46.71;40.41;56.96;;
69608;Laerm;57251;52.248;4.812;2024-02-04T00:09:34;53.67;41.69;66.91;;
69608;Laerm;57251;52.248;4.812;2024-02-04T00:09:44;53.58;45.72;64.14;;
69608;Laerm;57251;52.248;4.812;2024-02-04T00:09:55;50.20;45.67;58.60;;
69608;Laerm;57251;52.248;4.812;2024-02-04T00:10:05;43.57;39.20;52.06;;
69608;Laerm;57251;52.248;4.812;2024-02-04T00:10:16;56.51;39.29;77.21;;
69608;Laerm;57251;52.248;4.812;2024-02-04T00:10:28;63.74;40.24;74.06;;
69608;Laerm;57251;52.248;4.812;2024-02-04T00:10:38;56.55;37.09;65.48;;
69608;Laerm;57251;52.248;4.812;2024-02-04T00:10:49;49.86;36.43;61.42;;
69608;Laerm;57251;52.248;4.812;2024-02-04T00:10:59;48.01;35.97;59.40;;
69608;Laerm;57251;52.248;4.812;2024-02-04T00:11:09;54.83;37.40;66.48;;
69608;Laerm;57251;52.248;4.812;2024-02-04T00:11:21;52.37;36.71;63.34;;
69608;Laerm;57251;52.248;4.812;2024-02-04T00:11:32;63.68;35.87;76.54;;
69608;Laerm;57251;52.248;4.812;2024-02-04T00:11:42;57.76;36.12;70.84;;
69608;Laerm;57251;52.248;4.812;2024-02-04T00:11:53;63.72;37.07;76.55;;
69608;Laerm;57251;52.248;4.812;2024-02-04T00:12:03;48.61;35.88;62.17;;
69608;Laerm;57251;52.248;4.812;2024-02-04T00:12:15;38.93;35.79;49.06;;
69608;Laerm;57251;52.248;4.812;2024-02-04T00:12:25;59.50;36.75;72.83;;
69608;Laerm;57251;52.248;4.812;2024-02-04T00:12:37;55.02;45.16;64.25;;
69608;Laerm;57251;52.248;4.812;2024-02-04T00:12:47;46.37;37.69;55.82;;
69608;Laerm;57251;52.248;4.812;2024-02-04T00:12:57;44.92;37.07;54.56;;
69608;Laerm;57251;52.248;4.812;2024-02-04T00:13:08;59.74;36.48;71.69;;
69608;Laerm;57251;52.248;4.812;2024-02-04T00:13:18;45.43;36.31;59.68;;
69608;Laerm;57251;52.248;4.812;2024-02-04T00:13:28;52.00;37.19;64.97;;
69608;Laerm;57251;52.248;4.812;2024-02-04T00:13:39;57.51;37.33;69.39;;
69608;Laerm;57251;52.248;4.812;2024-02-04T00:13:49;58.32;37.09;68.00;;
69608;Laerm;57251;52.248;4.812;2024-02-04T00:14:00;57.85;35.67;71.94;;
69608;Laerm;57251;52.248;4.812;2024-02-04T00:14:13;48.50;36.64;61.99;;
69608;Laerm;57251;52.248;4.812;2024-02-04T00:14:23;55.93;36.58;70.75;;
69608;Laerm;57251;52.248;4.812;2024-02-04T00:14:34;50.90;37.52;64.24;;
69608;Laerm;57251;52.248;4.812;2024-02-04T00:14:44;54.25;41.29;69.06;;
69608;Laerm;57251;52.248;4.812;2024-02-04T00:14:54;68.49;49.22;83.57;;
69608;Laerm;57251;52.248;4.812;2024-02-04T00:15:05;54.26;40.24;66.38;;
69608;Laerm;57251;52.248;4.812;2024-02-04T00:15:15;55.41;40.68;66.38;;
69608;Laerm;57251;52.248;4.812;2024-02-04T00:15:25;56.01;40.50;67.18;;
69608;Laerm;57251;52.248;4.812;2024-02-04T00:15:36;46.42;39.26;59.48;;
69608;Laerm;57251;52.248;4.812;2024-02-04T00:15:46;53.14;38.61;66.26;;
69608;Laerm;57251;52.248;4.812;2024-02-04T00:15:57;56.63;37.41;70.89;;
69608;Laerm;57251;52.248;4.812;2024-02-04T00:16:08;63.36;36.51;81.15;;
69608;Laerm;57251;52.248;4.812;2024-02-04T00:16:19;66.24;39.82;78.65;;
69608;Laerm;57251;52.248;4.812;2024-02-04T00:16:29;62.56;38.75;77.69;;
69608;Laerm;57251;52.248;4.812;2024-02-04T00:16:39;58.53;38.05;70.16;;
69608;Laerm;57251;52.248;4.812;2024-02-04T00:16:50;57.69;37.95;69.56;;
69608;Laerm;57251;52.248;4.812;2024-02-04T00:17:00;49.31;37.25;61.82;;
69608;Laerm;57251;52.248;4.812;2024-02-04T00:17:10;49.45;39.10;60.36;;
69608;Laerm;57251;52.248;4.812;2024-02-04T00:17:21;47.16;37.74;57.34;;
69608;Laerm;57251;52.248;4.812;2024-02-04T00:17:31;42.01;39.38;52.20;;
69608;Laerm;57251;52.248;4.812;2024-02-04T00:17:43;46.08;40.69;53.17;;
69608;Laerm;57251;52.248;4.812;2024-02-04T00:17:54;62.43;45.64;73.96;;
69608;Laerm;57251;52.248;4.812;2024-02-04T00:18:04;50.17;43.34;59.89;;
69608;Laerm;57251;52.248;4.812;2024-02-04T00:18:15;51.55;37.77;60.68;;
69608;Laerm;57251;52.248;4.812;2024-02-04T00:18:25;48.62;37.50;62.40;;
69608;Laerm;57251;52.248;4.812;2024-02-04T00:18:35;53.18;36.39;64.40;;
69608;Laerm;57251;52.248;4.812;2024-02-04T00:18:46;50.82;36.23;62.68;;
69608;Laerm;57251;52.248;4.812;2024-02-04T00:18:56;52.92;35.98;63.76;;
69608;Laerm;57251;52.248;4.812;2024-02-04T00:19:07;42.50;35.33;56.19;;
69608;Laerm;57251;52.248;4.812;2024-02-04T00:19:18;41.15;35.47;52.77;;
69608;Laerm;57251;52.248;4.812;2024-02-04T00:19:29;56.23;35.35;69.29;;
69608;Laerm;57251;52.248;4.812;2024-02-04T00:19:39;58.80;36.76;71.98;;
69608;Laerm;57251;52.248;4.812;2024-02-04T00:19:49;56.47;36.35;68.56;;
69608;Laerm;57251;52.248;4.812;2024-02-04T00:20:00;59.17;35.27;72.21;;
69608;Laerm;57251;52.248;4.812;2024-02-04T00:20:11;62.27;42.50;76.37;;
69608;Laerm;57251;52.248;4.812;2024-02-04T00:20:21;54.32;35.63;66.81;;
69608;Laerm;57251;52.248;4.812;2024-02-04T00:20:34;47.47;35.27;60.76;;
69608;Laerm;57251;52.248;4.812;2024-02-04T00:20:44;42.30;35.28;53.92;;
69608;Laerm;57251;52.248;4.812;2024-02-04T00:20:55;45.27;36.58;55.06;;
69608;Laerm;57251;52.248;4.812;2024-02-04T00:21:05;57.53;37.57;67.21;;
69608;Laerm;57251;52.248;4.812;2024-02-04T00:21:16;55.36;36.95;67.95;;
69608;Laerm;57251;52.248;4.812;2024-02-04T00:21:26;40.09;36.74;47.93;;
69608;Laerm;57251;52.248;4.812;2024-02-04T00:21:36;44.06;37.01;59.19;;
69608;Laerm;57251;52.248;4.812;2024-02-04T00:21:47;46.89;38.91;58.61;;
69608;Laerm;57251;52.248;4.812;2024-02-04T00:21:57;42.88;36.98;50.11;;
69608;Laerm;57251;52.248;4.812;2024-02-04T00:22:08;40.47;37.65;49.97;;
69608;Laerm;57251;52.248;4.812;2024-02-04T00:22:18;40.72;36.89;45.52;;
69608;Laerm;57251;52.248;4.812;2024-02-04T00:22:30;46.44;36.65;56.32;;
69608;Laerm;57251;52.248;4.812;2024-02-04T00:22:40;59.39;42.93;71.31;;
69608;Laerm;57251;52.248;4.812;2024-02-04T00:22:50;56.52;35.96;68.70;;
69608;Laerm;57251;52.248;4.812;2024-02-04T00:23:01;59.00;37.20;69.76;;
69608;Laerm;57251;52.248;4.812;2024-02-04T00:23:11;63.99;47.71;80.39;;
69608;Laerm;57251;52.248;4.812;2024-02-04T00:23:22;65.31;44.00;77.99;;
69608;Laerm;57251;52.248;4.812;2024-02-04T00:23:32;58.47;39.20;74.76;;
69608;Laerm;57251;52.248;4.812;2024-02-04T00:23:42;51.25;36.90;61.43;;
69608;Laerm;57251;52.248;4.812;2024-02-04T00:23:53;51.17;36.00;62.08;;
69608;Laerm;57251;52.248;4.812;2024-02-04T00:24:03;54.07;35.27;67.12;;
69608;Laerm;57251;52.248;4.812;2024-02-04T00:24:14;49.97;35.06;60.15;;
69608;Laerm;57251;52.248;4.812;2024-02-04T00:24:24;48.95;35.31;62.80;;
69608;Laerm;57251;52.248;4.812;2024-02-04T00:24:34;42.80;35.61;58.44;;
69608;Laerm;57251;52.248;4.812;2024-02-04T00:24:45;49.74;35.88;65.00;;
69608;Laerm;57251;52.248;4.812;2024-02-04T00:24:55;49.84;37.55;65.16;;
69608;Laerm;57251;52.248;4.812;2024-02-04T00:25:11;45.71;35.88;61.96;;
69608;Laerm;57251;52.248;4.812;2024-02-04T00:25:22;40.54;37.00;44.26;;
69608;Laerm;57251;52.248;4.812;2024-02-04T00:25:33;38.88;36.52;45.62;;
69608;Laerm;57251;52.248;4.812;2024-02-04T00:25:43;44.65;36.66;53.65;;
69608;Laerm;57251;52.248;4.812;2024-02-04T00:25:54;42.81;36.17;53.35;;
69608;Laerm;57251;52.248;4.812;2024-02-04T00:26:04;57.56;37.09;68.08;;
69608;Laerm;57251;52.248;4.812;2024-02-04T00:26:15;51.88;36.86;66.03;;
69608;Laerm;57251;52.248;4.812;2024-02-04T00:26:25;39.80;36.27;53.03;;
69608;Laerm;57251;52.248;4.812;2024-02-04T00:26:36;48.88;36.03;65.04;;
69608;Laerm;57251;52.248;4.812;2024-02-04T00:26:46;48.18;35.90;60.76;;
69608;Laerm;57251;52.248;4.812;2024-02-04T00:26:57;46.47;36.84;57.96;;
69608;Laerm;57251;52.248;4.812;2024-02-04T00:27:07;51.00;41.89;60.82;;
69608;Laerm;57251;52.248;4.812;2024-02-04T00:27:17;55.09;38.98;64.57;;
69608;Laerm;57251;52.248;4.812;2024-02-04T00:27:28;40.08;35.58;48.66;;
69608;Laerm;57251;52.248;4.812;2024-02-04T00:27:39;45.93;37.87;61.08;;
69608;Laerm;57251;52.248;4.812;2024-02-04T00:27:49;50.69;37.64;62.73;;
69608;Laerm;57251;52.248;4.812;2024-02-04T00:28:00;45.89;35.80;59.99;;
69608;Laerm;57251;52.248;4.812;2024-02-04T00:28:10;46.07;36.84;63.01;;
69608;Laerm;57251;52.248;4.812;2024-02-04T00:28:21;47.62;38.54;59.45;;
69608;Laerm;57251;52.248;4.812;2024-02-04T00:28:32;47.37;37.98;57.35;;
69608;Laerm;57251;52.248;4.812;2024-02-04T00:28:45;47.56;36.87;62.20;;
69608;Laerm;57251;52.248;4.812;2024-02-04T00:28:56;42.18;36.80;59.99;;
69608;Laerm;57251;52.248;4.812;2024-02-04T00:29:06;42.34;36.29;50.94;;
69608;Laerm;57251;52.248;4.812;2024-02-04T00:29:16;41.93;35.22;58.26;;
69608;Laerm;57251;52.248;4.812;2024-02-04T00:29:27;67.84;35.14;83.48;;
69608;Laerm;57251;52.248;4.812;2024-02-04T00:29:37;56.95;35.49;69.73;;
69608;Laerm;57251;52.248;4.812;2024-02-04T00:29:48;56.06;35.85;69.10;;
69608;Laerm;57251;52.248;4.812;2024-02-04T00:29:58;59.03;36.14;74.64;;
69608;Laerm;57251;52.248;4.812;2024-02-04T00:30:09;60.65;34.62;76.21;;
69608;Laerm;57251;52.248;4.812;2024-02-04T00:30:20;70.69;39.20;87.79;;
69608;Laerm;57251;52.248;4.812;2024-02-04T00:30:30;68.93;39.93;81.13;;
69608;Laerm;57251;52.248;4.812;2024-02-04T00:30:40;58.10;37.55;73.99;;
69608;Laerm;57251;52.248;4.812;2024-02-04T00:30:51;53.78;37.16;64.98;;
69608;Laerm;57251;52.248;4.812;2024-02-04T00:31:05;66.13;36.09;82.20;;
69608;Laerm;57251;52.248;4.812;2024-02-04T00:31:16;66.24;38.57;80.06;;
69608;Laerm;57251;52.248;4.812;2024-02-04T00:31:26;65.26;40.24;78.46;;
69608;Laerm;57251;52.248;4.812;2024-02-04T00:31:37;53.21;36.38;62.86;;
69608;Laerm;57251;52.248;4.812;2024-02-04T00:31:47;51.98;36.87;63.31;;
69608;Laerm;57251;52.248;4.812;2024-02-04T00:31:57;62.94;35.10;75.42;;
69608;Laerm;57251;52.248;4.812;2024-02-04T00:32:08;62.32;35.80;73.65;;
69608;Laerm;57251;52.248;4.812;2024-02-04T00:32:18;51.85;34.92;69.22;;
69608;Laerm;57251;52.248;4.812;2024-02-04T00:32:28;55.86;35.87;69.19;;
69608;Laerm;57251;52.248;4.812;2024-02-04T00:32:39;57.00;37.74;70.94;;
69608;Laerm;57251;52.248;4.812;2024-02-04T00:32:49;51.49;36.47;69.33;;
69608;Laerm;57251;52.248;4.812;2024-02-04T00:33:00;47.44;36.75;61.44;;
69608;Laerm;57251;52.248;4.812;2024-02-04T00:33:13;55.12;36.19;65.82;;
69608;Laerm;57251;52.248;4.812;2024-02-04T00:33:23;57.92;38.84;67.99;;
69608;Laerm;57251;52.248;4.812;2024-02-04T00:33:33;58.47;35.75;70.36;;
69608;Laerm;57251;52.248;4.812;2024-02-04T00:33:44;45.70;36.68;55.82;;
69608;Laerm;57251;52.248;4.812;2024-02-04T00:33:54;54.40;35.71;66.35;;
69608;Laerm;57251;52.248;4.812;2024-02-04T00:34:05;51.51;36.65;61.40;;
69608;Laerm;57251;52.248;4.812;2024-02-04T00:34:15;45.72;35.97;59.76;;
69608;Laerm;57251;52.248;4.812;2024-02-04T00:34:26;38.67;35.93;45.57;;
69608;Laerm;57251;52.248;4.812;2024-02-04T00:34:36;39.64;36.14;53.31;;
69608;Laerm;57251;52.248;4.812;2024-02-04T00:34:46;37.83;35.42;45.04;;
69608;Laerm;57251;52.248;4.812;2024-02-04T00:34:57;41.53;35.04;51.68;;
69608;Laerm;57251;52.248;4.812;2024-02-04T00:35:07;39.78;34.03;52.10;;
69608;Laerm;57251;52.248;4.812;2024-02-04T00:35:18;36.75;34.37;51.81;;
69608;Laerm;57251;52.248;4.812;2024-02-04T00:35:29;44.02;35.34;55.26;;
69608;Laerm;57251;52.248;4.812;2024-02-04T00:35:39;46.89;35.37;57.87;;
69608;Laerm;57251;52.248;4.812;2024-02-04T00:35:49;58.57;36.80;69.90;;
69608;Laerm;57251;52.248;4.812;2024-02-04T00:36:00;57.12;37.19;67.75;;
69608;Laerm;57251;52.248;4.812;2024-02-04T00:36:10;52.74;36.79;68.52;;
69608;Laerm;57251;52.248;4.812;2024-02-04T00:36:20;39.81;36.88;51.06;;
69608;Laerm;57251;52.248;4.812;2024-02-04T00:36:31;42.86;36.97;53.57;;
69608;Laerm;57251;52.248;4.812;2024-02-04T00:36:45;42.49;36.78;60.48;;
69608;Laerm;57251;52.248;4.812;2024-02-04T00:36:55;43.01;36.27;51.24;;
69608;Laerm;57251;52.248;4.812;2024-02-04T00:37:05;44.38;36.73;55.06;;
69608;Laerm;57251;52.248;4.812;2024-02-04T00:37:16;57.77;36.05;70.16;;
69608;Laerm;57251;52.248;4.812;2024-02-04T00:37:26;51.83;35.95;61.91;;
69608;Laerm;57251;52.248;4.812;2024-02-04T00:37:37;37.75;34.95;44.62;;
69608;Laerm;57251;52.248;4.812;2024-02-04T00:37:47;40.44;34.90;53.12;;
69608;Laerm;57251;52.248;4.812;2024-02-04T00:37:57;42.15;35.42;53.94;;
69608;Laerm;57251;52.248;4.812;2024-02-04T00:38:08;41.35;35.75;53.08;;
69608;Laerm;57251;52.248;4.812;2024-02-04T00:38:21;38.06;35.36;43.30;;
69608;Laerm;57251;52.248;4.812;2024-02-04T00:38:31;39.79;36.62;46.48;;
69608;Laerm;57251;52.248;4.812;2024-02-04T00:38:42;47.39;36.95;62.47;;
69608;Laerm;57251;52.248;4.812;2024-02-04T00:38:52;55.46;36.94;68.26;;
69608;Laerm;57251;52.248;4.812;2024-02-04T00:39:02;53.33;37.67;64.56;;
69608;Laerm;57251;52.248;4.812;2024-02-04T00:39:13;41.47;36.81;49.94;;
69608;Laerm;57251;52.248;4.812;2024-02-04T00:39:24;41.69;37.08;51.38;;
69608;Laerm;57251;52.248;4.812;2024-02-04T00:39:34;40.08;36.97;51.86;;
69608;Laerm;57251;52.248;4.812;2024-02-04T00:39:44;47.82;37.83;58.96;;
69608;Laerm;57251;52.248;4.812;2024-02-04T00:39:55;50.04;35.26;63.35;;
69608;Laerm;57251;52.248;4.812;2024-02-04T00:40:05;43.98;35.62;56.39;;
69608;Laerm;57251;52.248;4.812;2024-02-04T00:40:16;44.51;36.05;56.32;;
69608;Laerm;57251;52.248;4.812;2024-02-04T00:40:26;41.37;35.53;55.78;;
69608;Laerm;57251;52.248;4.812;2024-02-04T00:40:36;41.64;36.26;55.11;;
69608;Laerm;57251;52.248;4.812;2024-02-04T00:40:47;42.29;37.13;46.44;;
69608;Laerm;57251;52.248;4.812;2024-02-04T00:40:57;47.08;42.69;49.39;;
69608;Laerm;57251;52.248;4.812;2024-02-04T00:41:07;41.07;36.48;47.14;;
69608;Laerm;57251;52.248;4.812;2024-02-04T00:41:20;37.88;34.98;45.16;;
69608;Laerm;57251;52.248;4.812;2024-02-04T00:41:31;41.72;37.10;46.47;;
69608;Laerm;57251;52.248;4.812;2024-02-04T00:41:41;46.99;37.56;58.82;;
69608;Laerm;57251;52.248;4.812;2024-02-04T00:41:51;53.61;36.30;66.85;;
69608;Laerm;57251;52.248;4.812;2024-02-04T00:42:02;56.94;35.52;69.49;;
69608;Laerm;57251;52.248;4.812;2024-02-04T00:42:12;51.17;34.95;65.02;;
69608;Laerm;57251;52.248;4.812;2024-02-04T00:42:23;38.84;34.59;51.54;;
69608;Laerm;57251;52.248;4.812;2024-02-04T00:42:33;36.97;34.58;44.11;;
69608;Laerm;57251;52.248;4.812;2024-02-04T00:42:43;36.69;34.08;44.95;;
69608;Laerm;57251;52.248;4.812;2024-02-04T00:42:54;35.88;34.14;38.09;;
69608;Laerm;57251;52.248;4.812;2024-02-04T00:43:04;36.39;34.39;41.93;;
69608;Laerm;57251;52.248;4.812;2024-02-04T00:43:15;38.62;34.24;55.23;;
69608;Laerm;57251;52.248;4.812;2024-02-04T00:43:25;37.79;34.04;53.15;;
69608;Laerm;57251;52.248;4.812;2024-02-04T00:43:36;36.86;34.03;46.64;;
69608;Laerm;57251;52.248;4.812;2024-02-04T00:43:46;37.79;34.26;49.87;;
69608;Laerm;57251;52.248;4.812;2024-02-04T00:43:56;36.51;34.95;38.39;;
69608;Laerm;57251;52.248;4.812;2024-02-04T00:44:07;36.46;34.58;42.05;;
69608;Laerm;57251;52.248;4.812;2024-02-04T00:44:17;50.59;34.71;62.95;;
69608;Laerm;57251;52.248;4.812;2024-02-04T00:44:27;45.45;34.85;58.27;;
69608;Laerm;57251;52.248;4.812;2024-02-04T00:44:38;36.75;34.70;41.02;;
69608;Laerm;57251;52.248;4.812;2024-02-04T00:44:48;36.49;34.45;40.22;;
69608;Laerm;57251;52.248;4.812;2024-02-04T00:44:58;45.55;34.57;61.47;;
69608;Laerm;57251;52.248;4.812;2024-02-04T00:45:09;50.05;34.73;62.62;;
69608;Laerm;57251;52.248;4.812;2024-02-04T00:45:19;38.67;34.70;50.77;;
69608;Laerm;57251;52.248;4.812;2024-02-04T00:45:30;39.68;34.22;48.54;;
69608;Laerm;57251;52.248;4.812;2024-02-04T00:45:40;46.82;34.78;63.57;;
69608;Laerm;57251;52.248;4.812;2024-02-04T00:45:50;43.46;34.98;54.04;;
69608;Laerm;57251;52.248;4.812;2024-02-04T00:46:01;36.55;35.08;39.87;;
69608;Laerm;57251;52.248;4.812;2024-02-04T00:46:11;39.60;35.26;53.06;;
69608;Laerm;57251;52.248;4.812;2024-02-04T00:46:21;39.81;36.49;48.15;;
69608;Laerm;57251;52.248;4.812;2024-02-04T00:46:32;41.47;37.58;53.41;;
69608;Laerm;57251;52.248;4.812;2024-02-04T00:46:43;48.41;37.68;61.34;;
69608;Laerm;57251;52.248;4.812;2024-02-04T00:46:53;38.91;36.53;43.82;;
69608;Laerm;57251;52.248;4.812;2024-02-04T00:47:04;38.26;36.31;44.52;;
69608;Laerm;57251;52.248;4.812;2024-02-04T00:47:14;37.46;35.27;44.02;;
69608;Laerm;57251;52.248;4.812;2024-02-04T00:47:24;37.56;35.52;46.99;;
69608;Laerm;57251;52.248;4.812;2024-02-04T00:47:36;38.11;35.32;43.22;;
69608;Laerm;57251;52.248;4.812;2024-02-04T00:47:46;42.65;36.56;53.76;;
69608;Laerm;57251;52.248;4.812;2024-02-04T00:47:56;58.81;36.25;70.60;;
69608;Laerm;57251;52.248;4.812;2024-02-04T00:48:07;56.43;37.44;68.66;;
69608;Laerm;57251;52.248;4.812;2024-02-04T00:48:17;46.74;36.44;58.60;;
69608;Laerm;57251;52.248;4.812;2024-02-04T00:48:27;48.12;36.80;59.65;;
69608;Laerm;57251;52.248;4.812;2024-02-04T00:48:38;40.96;35.35;50.96;;
69608;Laerm;57251;52.248;4.812;2024-02-04T00:48:48;46.81;37.53;59.95;;
69608;Laerm;57251;52.248;4.812;2024-02-04T00:48:58;40.59;35.97;50.05;;
69608;Laerm;57251;52.248;4.812;2024-02-04T00:49:09;39.35;35.49;50.24;;
69608;Laerm;57251;52.248;4.812;2024-02-04T00:49:19;46.94;35.01;60.51;;
69608;Laerm;57251;52.248;4.812;2024-02-04T00:49:29;48.52;34.86;59.39;;
69608;Laerm;57251;52.248;4.812;2024-02-04T00:49:39;41.48;35.10;54.33;;
69608;Laerm;57251;52.248;4.812;2024-02-04T00:49:50;40.03;34.36;57.80;;
69608;Laerm;57251;52.248;4.812;2024-02-04T00:50:00;36.05;34.61;39.78;;
69608;Laerm;57251;52.248;4.812;2024-02-04T00:50:10;35.87;34.08;40.66;;
69608;Laerm;57251;52.248;4.812;2024-02-04T00:50:21;36.29;34.53;40.38;;
69608;Laerm;57251;52.248;4.812;2024-02-04T00:50:31;35.62;33.82;39.28;;
69608;Laerm;57251;52.248;4.812;2024-02-04T00:50:41;38.01;34.22;47.09;;
69608;Laerm;57251;52.248;4.812;2024-02-04T00:50:52;39.05;34.53;46.31;;
69608;Laerm;57251;52.248;4.812;2024-02-04T00:51:02;39.80;34.88;47.01;;
69608;Laerm;57251;52.248;4.812;2024-02-04T00:51:13;44.70;34.52;55.14;;
69608;Laerm;57251;52.248;4.812;2024-02-04T00:51:24;36.73;34.49;41.50;;
69608;Laerm;57251;52.248;4.812;2024-02-04T00:51:34;37.01;34.85;40.88;;
69608;Laerm;57251;52.248;4.812;2024-02-04T00:51:44;37.44;34.50;45.25;;
69608;Laerm;57251;52.248;4.812;2024-02-04T00:51:55;41.01;35.66;50.83;;
69608;Laerm;57251;52.248;4.812;2024-02-04T00:52:05;42.15;35.88;49.87;;
69608;Laerm;57251;52.248;4.812;2024-02-04T00:52:15;42.19;35.73;51.28;;
69608;Laerm;57251;52.248;4.812;2024-02-04T00:52:26;40.61;36.98;51.70;;
69608;Laerm;57251;52.248;4.812;2024-02-04T00:52:38;40.96;34.95;58.51;;
69608;Laerm;57251;52.248;4.812;2024-02-04T00:52:48;46.57;35.69;56.89;;
69608;Laerm;57251;52.248;4.812;2024-02-04T00:52:59;45.01;35.53;54.83;;
69608;Laerm;57251;52.248;4.812;2024-02-04T00:53:09;45.27;37.06;57.79;;
69608;Laerm;57251;52.248;4.812;2024-02-04T00:53:19;53.61;37.25;64.85;;
69608;Laerm;57251;52.248;4.812;2024-02-04T00:53:29;54.91;36.31;65.89;;
69608;Laerm;57251;52.248;4.812;2024-02-04T00:53:43;48.85;36.04;65.00;;
69608;Laerm;57251;52.248;4.812;2024-02-04T00:53:54;36.92;35.27;41.22;;
69608;Laerm;57251;52.248;4.812;2024-02-04T00:54:04;41.94;35.49;55.40;;
69608;Laerm;57251;52.248;4.812;2024-02-04T00:54:15;43.16;35.29;56.11;;
69608;Laerm;57251;52.248;4.812;2024-02-04T00:54:25;38.62;35.00;51.50;;
69608;Laerm;57251;52.248;4.812;2024-02-04T00:54:35;36.56;34.86;38.67;;
69608;Laerm;57251;52.248;4.812;2024-02-04T00:54:46;37.81;34.96;43.46;;
69608;Laerm;57251;52.248;4.812;2024-02-04T00:54:56;40.29;36.59;45.63;;
69608;Laerm;57251;52.248;4.812;2024-02-04T00:55:06;39.85;37.08;43.94;;
69608;Laerm;57251;52.248;4.812;2024-02-04T00:55:17;39.01;35.88;46.95;;
69608;Laerm;57251;52.248;4.812;2024-02-04T00:55:27;38.60;36.56;43.40;;
69608;Laerm;57251;52.248;4.812;2024-02-04T00:55:37;38.37;35.99;45.60;;
69608;Laerm;57251;52.248;4.812;2024-02-04T00:55:48;36.84;34.57;45.95;;
69608;Laerm;57251;52.248;4.812;2024-02-04T00:56:02;37.60;34.06;50.40;;
69608;Laerm;57251;52.248;4.812;2024-02-04T00:56:12;37.84;34.21;49.00;;
69608;Laerm;57251;52.248;4.812;2024-02-04T00:56:23;35.99;34.03;38.62;;
69608;Laerm;57251;52.248;4.812;2024-02-04T00:56:33;40.62;34.37;50.88;;
69608;Laerm;57251;52.248;4.812;2024-02-04T00:56:43;38.66;34.25;48.03;;
69608;Laerm;57251;52.248;4.812;2024-02-04T00:56:54;43.96;35.07;55.18;;
69608;Laerm;57251;52.248;4.812;2024-02-04T00:57:05;44.82;35.66;52.74;;
69608;Laerm;57251;52.248;4.812;2024-02-04T00:57:15;45.93;35.35;58.15;;
69608;Laerm;57251;52.248;4.812;2024-02-04T00:57:25;38.73;35.04;50.77;;
69608;Laerm;57251;52.248;4.812;2024-02-04T00:57:36;38.46;34.90;49.38;;
69608;Laerm;57251;52.248;4.812;2024-02-04T00:57:46;37.02;33.85;42.91;;
69608;Laerm;57251;52.248;4.812;2024-02-04T00:57:56;37.06;34.48;45.23;;
69608;Laerm;57251;52.248;4.812;2024-02-04T00:58:10;51.92;35.11;64.33;;
69608;Laerm;57251;52.248;4.812;2024-02-04T00:58:20;48.19;34.76;57.42;;
69608;Laerm;57251;52.248;4.812;2024-02-04T00:58:31;37.67;34.22;50.18;;
69608;Laerm;57251;52.248;4.812;2024-02-04T00:58:41;36.57;34.38;42.31;;
69608;Laerm;57251;52.248;4.812;2024-02-04T00:58:52;36.16;34.13;41.35;;
69608;Laerm;57251;52.248;4.812;2024-02-04T00:59:02;36.59;34.50;40.78;;
69608;Laerm;57251;52.248;4.812;2024-02-04T00:59:12;37.99;34.43;46.37;;